createdAt,value
2022-11-07T00:01:18.878Z,14.66
2022-11-07T00:03:45.572Z,14.66
2022-11-07T00:06:13.538Z,14.67
2022-11-07T00:08:39.999Z,14.67
2022-11-07T00:11:06.779Z,14.67
2022-11-07T00:13:33.796Z,14.68
2022-11-07T00:16:01.908Z,14.69
2022-11-07T00:18:28.504Z,14.70
2022-11-07T00:20:54.980Z,14.71
2022-11-07T00:23:21.585Z,14.72
2022-11-07T00:25:48.647Z,14.74
2022-11-07T00:28:15.250Z,14.76
2022-11-07T00:30:41.729Z,14.77
2022-11-07T00:33:08.189Z,14.80
2022-11-07T00:35:40.834Z,14.79
2022-11-07T00:38:07.280Z,14.81
2022-11-07T00:40:33.775Z,14.83
2022-11-07T00:43:00.236Z,14.83
2022-11-07T00:45:30.850Z,14.84
2022-11-07T00:47:57.344Z,14.83
2022-11-07T00:50:23.895Z,14.82
2022-11-07T00:52:50.376Z,14.80
2022-11-07T00:55:16.956Z,14.79
2022-11-07T00:57:43.448Z,14.76
2022-11-07T01:00:10.689Z,14.74
2022-11-07T01:02:37.267Z,14.72
2022-11-07T01:05:13.092Z,14.69
2022-11-07T01:07:40.863Z,14.67
2022-11-07T01:10:08.790Z,14.63
2022-11-07T01:12:36.243Z,14.60
2022-11-07T01:15:04.755Z,14.60
2022-11-07T01:17:31.228Z,14.61
2022-11-07T01:19:57.710Z,14.61
2022-11-07T01:22:24.243Z,14.59
2022-11-07T01:24:52.458Z,14.59
2022-11-07T01:27:18.953Z,14.58
2022-11-07T01:29:45.412Z,14.57
2022-11-07T01:32:11.898Z,14.57
2022-11-07T01:34:41.698Z,14.58
2022-11-07T01:37:08.209Z,14.56
2022-11-07T01:39:34.674Z,14.56
2022-11-07T01:42:01.217Z,14.55
2022-11-07T01:44:29.270Z,14.55
2022-11-07T01:46:59.171Z,14.55
2022-11-07T01:49:37.675Z,14.53
2022-11-07T01:52:09.827Z,14.54
2022-11-07T01:54:43.929Z,14.53
2022-11-07T01:57:20.832Z,14.53
2022-11-07T01:59:48.172Z,14.51
2022-11-07T02:02:15.385Z,14.50
2022-11-07T02:04:46.226Z,14.49
2022-11-07T02:07:21.087Z,14.49
2022-11-07T02:09:48.612Z,14.49
2022-11-07T02:12:15.992Z,14.50
2022-11-07T02:14:43.837Z,14.50
2022-11-07T02:17:14.669Z,14.50
2022-11-07T02:19:49.887Z,14.51
2022-11-07T02:22:36.506Z,14.51
2022-11-07T02:25:08.352Z,14.54
2022-11-07T02:27:35.004Z,14.56
2022-11-07T02:30:23.665Z,14.57
2022-11-07T02:32:50.514Z,14.61
2022-11-07T02:35:38.747Z,14.62
2022-11-07T02:38:21.219Z,14.63
2022-11-07T02:41:00.882Z,14.65
2022-11-07T02:43:30.097Z,14.65
2022-11-07T02:46:00.407Z,14.66
2022-11-07T02:48:32.031Z,14.64
2022-11-07T02:50:59.258Z,14.62
2022-11-07T02:53:26.743Z,14.61
2022-11-07T02:55:53.281Z,14.61
2022-11-07T02:58:19.750Z,14.64
2022-11-07T03:00:46.295Z,14.65
2022-11-07T03:03:13.850Z,14.66
2022-11-07T03:05:41.625Z,14.66
2022-11-07T03:08:08.314Z,14.66
2022-11-07T03:10:34.925Z,14.67
2022-11-07T03:13:02.058Z,14.68
2022-11-07T03:15:31.581Z,14.68
2022-11-07T03:17:59.456Z,14.68
2022-11-07T03:20:25.960Z,14.67
2022-11-07T03:22:52.704Z,14.68
2022-11-07T03:25:22.290Z,14.66
2022-11-07T03:27:50.134Z,14.66
2022-11-07T03:30:17.266Z,14.66
2022-11-07T03:32:44.006Z,14.65
2022-11-07T03:35:10.740Z,14.63
2022-11-07T03:37:37.284Z,14.63
2022-11-07T03:40:04.258Z,14.61
2022-11-07T03:42:30.824Z,14.61
2022-11-07T03:44:58.277Z,14.63
2022-11-07T03:47:24.827Z,14.65
2022-11-07T03:49:51.273Z,14.65
2022-11-07T03:52:17.740Z,14.64
2022-11-07T03:54:48.161Z,14.63
2022-11-07T03:57:14.713Z,14.63
2022-11-07T03:59:41.253Z,14.63
2022-11-07T04:02:08.048Z,14.63
2022-11-07T04:04:36.261Z,14.62
2022-11-07T04:07:02.913Z,14.62
2022-11-07T04:09:29.422Z,14.65
2022-11-07T04:12:14.483Z,14.66
2022-11-07T04:14:59.570Z,14.69
2022-11-07T04:17:28.021Z,14.71
2022-11-07T04:19:56.074Z,14.74
2022-11-07T04:22:24.858Z,14.76
2022-11-07T04:24:52.680Z,14.79
2022-11-07T04:27:38.645Z,14.82
2022-11-07T04:30:19.754Z,14.84
2022-11-07T04:32:53.777Z,14.86
2022-11-07T04:35:23.777Z,14.89
2022-11-07T04:37:50.595Z,14.91
2022-11-07T04:40:18.358Z,14.93
2022-11-07T04:42:45.880Z,14.94
2022-11-07T04:45:13.884Z,14.95
2022-11-07T04:47:40.972Z,14.96
2022-11-07T04:50:10.036Z,14.96
2022-11-07T04:52:36.680Z,14.96
2022-11-07T04:55:08.444Z,14.96
2022-11-07T04:57:35.012Z,14.94
2022-11-07T05:00:02.508Z,14.94
2022-11-07T05:02:29.125Z,14.91
2022-11-07T05:04:55.685Z,14.89
2022-11-07T05:07:22.184Z,14.88
2022-11-07T05:09:48.775Z,14.87
2022-11-07T05:12:15.240Z,14.84
2022-11-07T05:14:42.804Z,14.83
2022-11-07T05:17:15.025Z,14.81
2022-11-07T05:19:43.454Z,14.82
2022-11-07T05:22:29.720Z,14.82
2022-11-07T05:25:00.522Z,14.83
2022-11-07T05:27:26.982Z,14.84
2022-11-07T05:29:53.463Z,14.86
2022-11-07T05:32:19.995Z,14.87
2022-11-07T05:34:50.724Z,14.90
2022-11-07T05:37:17.198Z,14.92
2022-11-07T05:39:43.644Z,14.92
2022-11-07T05:42:10.102Z,14.94
2022-11-07T05:44:39.427Z,14.95
2022-11-07T05:47:05.904Z,14.96
2022-11-07T05:49:32.352Z,14.98
2022-11-07T05:51:58.855Z,14.98
2022-11-07T05:54:30.321Z,14.99
2022-11-07T05:56:57.624Z,15.01
2022-11-07T05:59:24.207Z,15.02
2022-11-07T06:01:52.380Z,15.05
2022-11-07T06:04:23.118Z,15.07
2022-11-07T06:06:49.687Z,15.09
2022-11-07T06:09:16.177Z,15.09
2022-11-07T06:11:42.707Z,15.09
2022-11-07T06:14:16.664Z,15.10
2022-11-07T06:16:43.205Z,15.10
2022-11-07T06:19:09.785Z,15.13
2022-11-07T06:21:36.316Z,15.13
2022-11-07T06:24:03.556Z,15.14
2022-11-07T06:26:30.123Z,15.13
2022-11-07T06:28:56.583Z,15.12
2022-11-07T06:31:23.134Z,15.12
2022-11-07T06:33:54.476Z,15.14
2022-11-07T06:36:21.032Z,15.14
2022-11-07T06:38:53.119Z,15.14
2022-11-07T06:41:19.628Z,15.15
2022-11-07T06:43:46.215Z,15.16
2022-11-07T06:46:14.300Z,15.18
2022-11-07T06:48:43.556Z,15.19
2022-11-07T06:51:11.050Z,15.20
2022-11-07T06:53:38.592Z,15.23
2022-11-07T06:56:07.696Z,15.24
2022-11-07T06:58:34.729Z,15.24
2022-11-07T07:01:03.132Z,15.25
2022-11-07T07:03:30.413Z,15.27
2022-11-07T07:06:04.413Z,15.30
2022-11-07T07:08:32.024Z,15.34
2022-11-07T07:11:02.814Z,15.36
2022-11-07T07:13:29.922Z,15.37
2022-11-07T07:15:58.202Z,15.39
2022-11-07T07:18:25.672Z,15.40
2022-11-07T07:21:12.459Z,15.42
2022-11-07T07:23:39.244Z,15.46
2022-11-07T07:26:10.034Z,15.46
2022-11-07T07:28:37.307Z,15.50
2022-11-07T07:31:22.349Z,15.51
2022-11-07T07:33:49.128Z,15.54
2022-11-07T07:36:20.805Z,15.56
2022-11-07T07:38:48.392Z,15.60
2022-11-07T07:41:15.030Z,15.63
2022-11-07T07:43:41.602Z,15.66
2022-11-07T07:46:08.616Z,15.70
2022-11-07T07:48:35.636Z,15.73
2022-11-07T07:51:02.364Z,15.76
2022-11-07T07:53:28.912Z,15.78
2022-11-07T07:55:57.813Z,15.80
2022-11-07T07:58:25.742Z,15.83
2022-11-07T08:00:58.685Z,15.84
2022-11-07T08:03:29.316Z,15.86
2022-11-07T08:06:02.281Z,15.87
2022-11-07T08:08:31.489Z,15.90
2022-11-07T08:11:07.870Z,15.93
2022-11-07T08:13:34.609Z,15.97
2022-11-07T08:16:05.118Z,16.01
2022-11-07T08:18:31.636Z,16.04
2022-11-07T08:20:58.297Z,16.10
2022-11-07T08:23:25.016Z,16.14
2022-11-07T08:26:00.208Z,16.19
2022-11-07T08:28:29.265Z,16.24
2022-11-07T08:31:04.493Z,16.30
2022-11-07T08:33:31.487Z,16.34
2022-11-07T08:36:02.581Z,16.40
2022-11-07T08:38:30.806Z,16.43
2022-11-07T08:40:57.877Z,16.50
2022-11-07T08:43:24.809Z,16.56
2022-11-07T08:45:53.294Z,16.62
2022-11-07T08:48:19.920Z,16.68
2022-11-07T08:50:50.936Z,16.74
2022-11-07T08:53:17.838Z,16.79
2022-11-07T08:55:44.484Z,16.87
2022-11-07T08:58:11.036Z,16.93
2022-11-07T09:00:37.632Z,16.98
2022-11-07T09:03:38.772Z,17.03
2022-11-07T09:05:53.114Z,17.13
2022-11-07T09:08:19.662Z,17.20
2022-11-07T09:10:46.229Z,17.26
2022-11-07T09:13:15.048Z,17.31
2022-11-07T09:15:49.520Z,17.35
2022-11-07T09:18:17.392Z,17.38
2022-11-07T09:20:43.847Z,17.40
2022-11-07T09:23:10.437Z,17.40
2022-11-07T09:25:36.944Z,17.37
2022-11-07T09:28:04.156Z,17.35
2022-11-07T09:30:31.049Z,17.35
2022-11-07T09:32:57.628Z,17.34
2022-11-07T09:35:25.763Z,17.35
2022-11-07T09:37:52.534Z,17.35
2022-11-07T09:40:33.057Z,17.35
2022-11-07T09:43:28.454Z,17.36
2022-11-07T09:46:14.978Z,17.38
2022-11-07T09:48:46.243Z,17.39
2022-11-07T09:51:46.950Z,17.39
2022-11-07T09:54:24.815Z,17.39
2022-11-07T09:56:52.341Z,17.40
2022-11-07T09:59:32.596Z,17.41
2022-11-07T10:01:59.151Z,17.42
2022-11-07T10:04:27.380Z,17.44
2022-11-07T10:07:04.204Z,17.47
2022-11-07T10:09:46.385Z,17.47
2022-11-07T10:12:24.397Z,17.52
2022-11-07T10:15:18.474Z,17.58
2022-11-07T10:18:01.377Z,17.66
2022-11-07T10:20:49.148Z,17.71
2022-11-07T10:23:34.479Z,17.75
2022-11-07T10:26:09.189Z,17.79
2022-11-07T10:28:46.725Z,17.82
2022-11-07T10:31:14.795Z,17.85
2022-11-07T10:33:47.255Z,17.86
2022-11-07T10:36:28.816Z,17.85
2022-11-07T10:38:55.500Z,17.85
2022-11-07T10:41:27.594Z,17.84
2022-11-07T10:44:00.861Z,17.81
2022-11-07T10:46:33.696Z,17.81
2022-11-07T10:49:02.721Z,17.80
2022-11-07T10:51:40.792Z,17.79
2022-11-07T10:54:27.367Z,17.79
2022-11-07T10:57:07.040Z,17.82
2022-11-07T10:59:36.969Z,17.84
2022-11-07T11:02:19.504Z,17.86
2022-11-07T11:05:02.554Z,17.88
2022-11-07T11:07:40.424Z,17.91
2022-11-07T11:10:22.920Z,17.93
2022-11-07T11:12:49.959Z,17.96
2022-11-07T11:15:19.778Z,17.97
2022-11-07T11:17:47.562Z,18.00
2022-11-07T11:20:26.242Z,18.03
2022-11-07T11:22:53.743Z,18.07
2022-11-07T11:25:24.925Z,18.09
2022-11-07T11:28:03.369Z,18.12
2022-11-07T11:30:30.819Z,18.15
2022-11-07T11:33:03.557Z,18.16
2022-11-07T11:35:42.003Z,18.21
2022-11-07T11:38:17.778Z,18.25
2022-11-07T11:40:48.213Z,18.29
2022-11-07T11:43:23.832Z,18.33
2022-11-07T11:46:02.909Z,18.32
2022-11-07T11:48:45.105Z,18.33
2022-11-07T11:51:21.027Z,18.35
2022-11-07T11:53:47.733Z,18.39
2022-11-07T11:56:34.404Z,18.47
2022-11-07T11:59:23.902Z,18.58
2022-11-07T12:02:38.382Z,18.67
2022-11-07T12:05:47.723Z,18.77
2022-11-07T12:08:29.436Z,18.83
2022-11-07T12:11:34.410Z,18.83
2022-11-07T12:14:42.092Z,18.88
2022-11-07T12:17:24.259Z,18.91
2022-11-07T12:20:01.059Z,18.93
2022-11-07T12:22:39.450Z,18.95
2022-11-07T12:25:40.535Z,19.00
2022-11-07T12:28:12.741Z,19.03
2022-11-07T12:30:54.840Z,19.05
2022-11-07T12:34:00.917Z,19.08
2022-11-07T12:36:53.683Z,19.08
2022-11-07T12:39:30.576Z,19.05
2022-11-07T12:41:59.993Z,19.06
2022-11-07T12:44:41.839Z,19.10
2022-11-07T12:47:34.681Z,19.14
2022-11-07T12:50:38.841Z,19.18
2022-11-07T12:53:20.781Z,19.23
2022-11-07T12:55:56.401Z,19.28
2022-11-07T12:58:31.124Z,19.34
2022-11-07T13:00:58.684Z,19.43
2022-11-07T13:03:37.244Z,19.55
2022-11-07T13:06:06.488Z,19.64
2022-11-07T13:08:45.100Z,19.74
2022-11-07T13:11:25.877Z,19.81
2022-11-07T13:14:13.148Z,19.84
2022-11-07T13:16:50.286Z,19.84
2022-11-07T13:19:24.415Z,19.80
2022-11-07T13:22:02.361Z,19.75
2022-11-07T13:24:32.870Z,19.65
2022-11-07T13:27:00.039Z,19.62
2022-11-07T13:29:37.999Z,19.56
2022-11-07T13:32:09.137Z,19.51
2022-11-07T13:34:57.752Z,19.47
2022-11-07T13:37:30.893Z,19.45
2022-11-07T13:40:15.960Z,19.41
2022-11-07T13:42:44.807Z,19.41
2022-11-07T13:45:26.600Z,19.39
2022-11-07T13:47:57.922Z,19.36
2022-11-07T13:50:36.911Z,19.30
2022-11-07T13:53:12.661Z,19.25
2022-11-07T13:55:46.759Z,19.22
2022-11-07T13:58:16.452Z,19.20
2022-11-07T14:00:43.144Z,19.19
2022-11-07T14:03:42.424Z,19.12
2022-11-07T14:06:14.196Z,19.13
2022-11-07T14:08:44.756Z,19.13
2022-11-07T14:11:21.175Z,19.11
2022-11-07T14:13:51.691Z,19.12
2022-11-07T14:16:24.708Z,19.12
2022-11-07T14:19:07.584Z,19.15
2022-11-07T14:21:36.631Z,19.17
2022-11-07T14:24:04.395Z,19.21
2022-11-07T14:26:36.898Z,19.21
2022-11-07T14:29:05.383Z,19.24
2022-11-07T14:31:34.989Z,19.25
2022-11-07T14:34:24.933Z,19.27
2022-11-07T14:36:57.445Z,19.28
2022-11-07T14:39:26.896Z,19.28
2022-11-07T14:41:55.790Z,19.25
2022-11-07T14:44:54.016Z,19.23
2022-11-07T14:47:24.156Z,19.21
2022-11-07T14:49:52.406Z,19.18
2022-11-07T14:52:20.825Z,19.15
2022-11-07T14:55:08.505Z,19.12
2022-11-07T14:57:38.090Z,19.11
2022-11-07T15:00:14.761Z,19.10
2022-11-07T15:02:41.918Z,19.08
2022-11-07T15:05:25.171Z,19.05
2022-11-07T15:07:51.850Z,19.02
2022-11-07T15:10:26.225Z,19.01
2022-11-07T15:12:56.292Z,18.99
2022-11-07T15:15:28.883Z,18.98
2022-11-07T15:17:57.673Z,18.97
2022-11-07T15:20:35.399Z,18.96
2022-11-07T15:23:05.073Z,18.93
2022-11-07T15:25:40.616Z,18.92
2022-11-07T15:28:31.131Z,18.91
2022-11-07T15:30:59.828Z,18.90
2022-11-07T15:33:30.625Z,18.88
2022-11-07T15:36:01.041Z,18.87
2022-11-07T15:38:29.349Z,18.82
2022-11-07T15:40:56.341Z,18.80
2022-11-07T15:43:23.262Z,18.77
2022-11-07T15:45:53.212Z,18.78
2022-11-07T15:48:22.793Z,18.77
2022-11-07T15:50:49.985Z,18.76
2022-11-07T15:53:19.112Z,18.73
2022-11-07T15:55:46.618Z,18.73
2022-11-07T15:58:15.430Z,18.70
2022-11-07T16:00:42.607Z,18.67
2022-11-07T16:03:14.708Z,18.64
2022-11-07T16:05:42.294Z,18.62
2022-11-07T16:08:14.640Z,18.60
2022-11-07T16:10:47.712Z,18.59
2022-11-07T16:13:14.554Z,18.58
2022-11-07T16:15:45.657Z,18.57
2022-11-07T16:18:18.010Z,18.55
2022-11-07T16:20:45.355Z,18.51
2022-11-07T16:23:12.406Z,18.47
2022-11-07T16:25:42.404Z,18.47
2022-11-07T16:28:27.316Z,18.46
2022-11-07T16:30:55.946Z,18.45
2022-11-07T16:33:22.870Z,18.43
2022-11-07T16:36:00.274Z,18.41
2022-11-07T16:38:32.587Z,18.41
2022-11-07T16:41:01.373Z,18.41
2022-11-07T16:43:28.330Z,18.39
2022-11-07T16:45:59.962Z,18.36
2022-11-07T16:48:29.480Z,18.34
2022-11-07T16:50:56.723Z,18.33
2022-11-07T16:53:25.082Z,18.31
2022-11-07T16:55:55.093Z,18.30
2022-11-07T16:58:30.458Z,18.32
2022-11-07T17:00:59.711Z,18.32
2022-11-07T17:03:26.950Z,18.35
2022-11-07T17:05:55.984Z,18.32
2022-11-07T17:08:38.928Z,18.31
2022-11-07T17:11:06.126Z,18.29
2022-11-07T17:13:33.077Z,18.26
2022-11-07T17:16:01.165Z,18.23
2022-11-07T17:18:27.916Z,18.23
2022-11-07T17:20:55.825Z,18.24
2022-11-07T17:23:30.045Z,18.24
2022-11-07T17:26:02.416Z,18.25
2022-11-07T17:28:29.095Z,18.25
2022-11-07T17:30:55.638Z,18.26
2022-11-07T17:33:22.767Z,18.25
2022-11-07T17:35:55.648Z,18.25
2022-11-07T17:38:22.151Z,18.25
2022-11-07T17:40:48.659Z,18.25
2022-11-07T17:43:15.140Z,18.25
2022-11-07T17:45:45.170Z,18.23
2022-11-07T17:48:11.631Z,18.23
2022-11-07T17:50:38.338Z,18.24
2022-11-07T17:53:04.832Z,18.24
2022-11-07T17:55:31.369Z,18.24
2022-11-07T17:57:58.229Z,18.26
2022-11-07T18:00:27.101Z,18.25
2022-11-07T18:02:53.721Z,18.26
2022-11-07T18:05:22.647Z,18.27
2022-11-07T18:07:49.380Z,18.28
2022-11-07T18:10:16.680Z,18.28
2022-11-07T18:12:44.178Z,18.28
2022-11-07T18:15:15.225Z,18.27
2022-11-07T18:17:42.027Z,18.27
2022-11-07T18:20:09.878Z,18.25
2022-11-07T18:22:37.451Z,18.25
2022-11-07T18:25:08.617Z,18.25
2022-11-07T18:27:35.353Z,18.24
2022-11-07T18:30:02.962Z,18.20
2022-11-07T18:32:35.462Z,18.17
2022-11-07T18:35:04.552Z,18.15
2022-11-07T18:37:31.028Z,18.14
2022-11-07T18:39:57.505Z,18.13
2022-11-07T18:42:23.959Z,18.12
2022-11-07T18:44:52.036Z,18.10
2022-11-07T18:47:18.736Z,18.06
2022-11-07T18:49:45.197Z,18.04
2022-11-07T18:52:11.779Z,18.00
2022-11-07T18:54:42.322Z,17.97
2022-11-07T18:57:08.785Z,17.94
2022-11-07T18:59:35.223Z,17.89
2022-11-07T19:02:01.784Z,17.86
2022-11-07T19:04:33.903Z,17.82
2022-11-07T19:07:00.432Z,17.79
2022-11-07T19:09:32.310Z,17.76
2022-11-07T19:12:00.423Z,17.73
2022-11-07T19:14:29.729Z,17.68
2022-11-07T19:16:57.218Z,17.67
2022-11-07T19:19:23.799Z,17.65
2022-11-07T19:21:50.306Z,17.66
2022-11-07T19:24:18.643Z,17.63
2022-11-07T19:26:45.213Z,17.58
2022-11-07T19:29:11.761Z,17.57
2022-11-07T19:31:38.477Z,17.55
2022-11-07T19:34:05.950Z,17.55
2022-11-07T19:36:33.312Z,17.57
2022-11-07T19:39:00.004Z,17.57
2022-11-07T19:41:26.600Z,17.58
2022-11-07T19:43:53.189Z,17.58
2022-11-07T19:46:22.816Z,17.58
2022-11-07T19:48:50.556Z,17.57
2022-11-07T19:51:22.243Z,17.56
2022-11-07T19:53:57.562Z,17.56
2022-11-07T19:56:26.517Z,17.54
2022-11-07T19:58:54.419Z,17.49
2022-11-07T20:01:24.497Z,17.44
2022-11-07T20:03:52.547Z,17.39
2022-11-07T20:06:23.347Z,17.34
2022-11-07T20:08:50.991Z,17.28
2022-11-07T20:11:21.448Z,17.24
2022-11-07T20:13:48.126Z,17.21
2022-11-07T20:16:15.161Z,17.17
2022-11-07T20:18:41.999Z,17.15
2022-11-07T20:21:12.835Z,17.12
2022-11-07T20:23:40.764Z,17.10
2022-11-07T20:26:09.902Z,17.11
2022-11-07T20:28:36.702Z,17.12
2022-11-07T20:31:14.186Z,17.13
2022-11-07T20:33:40.996Z,17.15
2022-11-07T20:36:10.733Z,17.18
2022-11-07T20:38:37.255Z,17.19
2022-11-07T20:41:05.349Z,17.19
2022-11-07T20:43:33.764Z,17.20
2022-11-07T20:46:09.264Z,17.21
2022-11-07T20:48:36.904Z,17.20
2022-11-07T20:51:25.729Z,17.18
2022-11-07T20:53:53.663Z,17.19
2022-11-07T20:56:22.893Z,17.16
2022-11-07T20:58:50.324Z,17.15
2022-11-07T21:01:19.941Z,17.15
2022-11-07T21:03:47.459Z,17.12
2022-11-07T21:06:14.118Z,17.11
2022-11-07T21:08:42.845Z,17.09
2022-11-07T21:11:11.214Z,17.09
2022-11-07T21:13:38.180Z,17.08
2022-11-07T21:16:06.517Z,17.07
2022-11-07T21:18:33.124Z,17.06
2022-11-07T21:21:06.549Z,17.03
2022-11-07T21:23:33.060Z,17.02
2022-11-07T21:25:59.578Z,16.99
2022-11-07T21:28:26.505Z,16.97
2022-11-07T21:31:00.796Z,16.96
2022-11-07T21:33:27.321Z,16.96
2022-11-07T21:35:54.678Z,16.98
2022-11-07T21:38:23.030Z,16.99
2022-11-07T21:40:49.834Z,17.02
2022-11-07T21:43:16.567Z,17.02
2022-11-07T21:45:43.581Z,17.03
2022-11-07T21:48:10.446Z,17.06
2022-11-07T21:50:45.281Z,17.10
2022-11-07T21:53:12.348Z,17.11
2022-11-07T21:55:38.918Z,17.15
2022-11-07T21:58:05.381Z,17.17
2022-11-07T22:00:36.324Z,17.17
2022-11-07T22:03:04.360Z,17.19
2022-11-07T22:05:30.973Z,17.19
2022-11-07T22:07:58.016Z,17.20
2022-11-07T22:10:24.776Z,17.19
2022-11-07T22:12:52.416Z,17.18
2022-11-07T22:15:19.656Z,17.18
2022-11-07T22:17:46.259Z,17.17
2022-11-07T22:20:13.043Z,17.14
2022-11-07T22:22:39.670Z,17.12
2022-11-07T22:25:11.558Z,17.10
2022-11-07T22:27:38.205Z,17.09
2022-11-07T22:30:05.493Z,17.07
2022-11-07T22:32:32.172Z,17.06
2022-11-07T22:34:58.761Z,17.03
2022-11-07T22:37:25.459Z,17.00
2022-11-07T22:39:52.029Z,16.96
2022-11-07T22:42:23.612Z,16.92
2022-11-07T22:44:55.120Z,16.88
2022-11-07T22:47:21.731Z,16.87
2022-11-07T22:49:48.388Z,16.87
2022-11-07T22:52:15.433Z,16.84
2022-11-07T22:54:46.454Z,16.82
2022-11-07T22:57:17.562Z,16.80
2022-11-07T22:59:44.472Z,16.77
2022-11-07T23:02:11.215Z,16.75
2022-11-07T23:04:39.718Z,16.74
2022-11-07T23:07:06.328Z,16.71
2022-11-07T23:09:32.937Z,16.70
2022-11-07T23:12:00.567Z,16.68
2022-11-07T23:14:31.252Z,16.66
2022-11-07T23:16:57.890Z,16.63
2022-11-07T23:19:26.261Z,16.59
2022-11-07T23:21:54.780Z,16.55
2022-11-07T23:24:26.997Z,16.50
2022-11-07T23:26:53.611Z,16.49
2022-11-07T23:29:23.173Z,16.47
2022-11-07T23:31:51.165Z,16.44
2022-11-07T23:34:22.954Z,16.41
2022-11-07T23:36:50.988Z,16.39
2022-11-07T23:39:20.299Z,16.36
2022-11-07T23:41:47.311Z,16.35
2022-11-07T23:44:18.189Z,16.35
2022-11-07T23:47:04.135Z,16.36
2022-11-07T23:49:49.665Z,16.36
2022-11-07T23:52:17.591Z,16.34
2022-11-07T23:55:02.750Z,16.33
2022-11-07T23:57:29.611Z,16.32
